sensor_id;sensor_type;location;lat;lon;timestamp;pressure;altitude;pressure_sealevel;temperature;humidity
6567;BME280;3317;43.994;22.878;2023-04-02T00:01:34;99964.25;;;11.28;68.08
6567;BME280;3317;43.994;22.878;2023-04-02T00:04:15;99971.72;;;11.26;67.81
6567;BME280;3317;43.994;22.878;2023-04-02T00:06:48;99974.25;;;11.27;67.53
6567;BME280;3317;43.994;22.878;2023-04-02T00:09:36;99979.19;;;11.24;67.87
6567;BME280;3317;43.994;22.878;2023-04-02T00:12:17;99968.25;;;11.09;67.89
6567;BME280;3317;43.994;22.878;2023-04-02T00:14:48;99984.53;;;11.09;68.05
6567;BME280;3317;43.994;22.878;2023-04-02T00:17:16;99976.56;;;11.07;67.95
6567;BME280;3317;43.994;22.878;2023-04-02T00:19:47;99979.94;;;11.09;67.91
6567;BME280;3317;43.994;22.878;2023-04-02T00:22:17;99987.69;;;11.12;67.38
6567;BME280;3317;43.994;22.878;2023-04-02T00:24:44;99980.78;;;11.10;67.51
6567;BME280;3317;43.994;22.878;2023-04-02T00:27:13;99984.69;;;11.07;67.68
6567;BME280;3317;43.994;22.878;2023-04-02T00:29:51;99963.53;;;11.03;67.19
6567;BME280;3317;43.994;22.878;2023-04-02T00:32:21;99976.84;;;11.12;67.10
6567;BME280;3317;43.994;22.878;2023-04-02T00:34:50;99973.47;;;11.10;67.16
6567;BME280;3317;43.994;22.878;2023-04-02T00:37:19;99959.63;;;11.05;67.05
6567;BME280;3317;43.994;22.878;2023-04-02T00:39:55;99973.69;;;11.09;66.87
6567;BME280;3317;43.994;22.878;2023-04-02T00:42:25;99966.50;;;11.16;66.67
6567;BME280;3317;43.994;22.878;2023-04-02T00:44:56;99976.19;;;11.10;66.60
6567;BME280;3317;43.994;22.878;2023-04-02T00:47:25;99971.28;;;11.06;66.90
6567;BME280;3317;43.994;22.878;2023-04-02T00:49:58;99974.50;;;11.09;66.43
6567;BME280;3317;43.994;22.878;2023-04-02T00:52:28;99970.81;;;11.02;66.14
6567;BME280;3317;43.994;22.878;2023-04-02T00:55:02;99971.50;;;11.04;66.42
6567;BME280;3317;43.994;22.878;2023-04-02T00:57:30;99979.47;;;10.97;66.66
6567;BME280;3317;43.994;22.878;2023-04-02T01:00:09;99985.41;;;11.01;65.88
6567;BME280;3317;43.994;22.878;2023-04-02T01:02:38;99982.00;;;10.99;66.17
6567;BME280;3317;43.994;22.878;2023-04-02T01:05:21;99978.25;;;11.00;66.24
6567;BME280;3317;43.994;22.878;2023-04-02T01:08:02;99975.25;;;10.95;66.16
6567;BME280;3317;43.994;22.878;2023-04-02T01:10:57;99981.69;;;10.94;66.29
6567;BME280;3317;43.994;22.878;2023-04-02T01:13:30;99984.56;;;10.92;66.21
6567;BME280;3317;43.994;22.878;2023-04-02T01:16:05;99971.88;;;10.84;66.24
6567;BME280;3317;43.994;22.878;2023-04-02T01:18:50;99980.50;;;10.96;65.96
6567;BME280;3317;43.994;22.878;2023-04-02T01:21:46;99975.25;;;10.95;65.55
6567;BME280;3317;43.994;22.878;2023-04-02T01:24:18;99975.97;;;10.89;65.39
6567;BME280;3317;43.994;22.878;2023-04-02T01:26:58;99987.28;;;10.92;65.57
6567;BME280;3317;43.994;22.878;2023-04-02T01:29:28;99975.97;;;10.89;65.81
6567;BME280;3317;43.994;22.878;2023-04-02T01:31:58;99980.53;;;10.88;65.51
6567;BME280;3317;43.994;22.878;2023-04-02T01:34:28;99965.50;;;10.77;65.89
6567;BME280;3317;43.994;22.878;2023-04-02T01:37:08;99991.72;;;10.85;65.88
6567;BME280;3317;43.994;22.878;2023-04-02T01:39:59;99992.53;;;10.85;65.74
6567;BME280;3317;43.994;22.878;2023-04-02T01:42:33;99987.66;;;10.81;65.79
6567;BME280;3317;43.994;22.878;2023-04-02T01:45:07;99997.81;;;10.79;65.77
6567;BME280;3317;43.994;22.878;2023-04-02T01:47:37;100001.38;;;10.79;65.49
6567;BME280;3317;43.994;22.878;2023-04-02T01:50:20;100002.22;;;10.80;65.05
6567;BME280;3317;43.994;22.878;2023-04-02T01:52:50;100014.28;;;10.77;64.98
6567;BME280;3317;43.994;22.878;2023-04-02T01:55:24;100010.38;;;10.72;65.40
6567;BME280;3317;43.994;22.878;2023-04-02T01:57:56;100012.59;;;10.76;65.51
6567;BME280;3317;43.994;22.878;2023-04-02T02:00:26;100019.19;;;10.82;65.38
6567;BME280;3317;43.994;22.878;2023-04-02T02:02:55;100019.03;;;10.75;65.33
6567;BME280;3317;43.994;22.878;2023-04-02T02:05:22;100020.56;;;10.69;65.45
6567;BME280;3317;43.994;22.878;2023-04-02T02:07:50;99954.53;;;10.29;65.94
6567;BME280;3317;43.994;22.878;2023-04-02T02:10:21;100009.88;;;10.60;65.89
6567;BME280;3317;43.994;22.878;2023-04-02T02:12:50;100024.44;;;10.67;65.38
6567;BME280;3317;43.994;22.878;2023-04-02T02:15:20;100020.88;;;10.66;65.42
6567;BME280;3317;43.994;22.878;2023-04-02T02:17:49;100024.44;;;10.67;65.71
6567;BME280;3317;43.994;22.878;2023-04-02T02:20:19;100016.66;;;10.64;65.42
6567;BME280;3317;43.994;22.878;2023-04-02T02:22:48;100027.81;;;10.61;65.69
6567;BME280;3317;43.994;22.878;2023-04-02T02:25:18;100021.75;;;10.59;65.93
6567;BME280;3317;43.994;22.878;2023-04-02T02:27:51;100022.09;;;10.55;65.95
6567;BME280;3317;43.994;22.878;2023-04-02T02:30:23;100026.50;;;10.56;65.63
6567;BME280;3317;43.994;22.878;2023-04-02T02:32:58;100019.06;;;10.50;65.76
6567;BME280;3317;43.994;22.878;2023-04-02T02:35:28;100024.47;;;10.50;66.11
6567;BME280;3317;43.994;22.878;2023-04-02T02:38:18;100020.75;;;10.51;65.92
6567;BME280;3317;43.994;22.878;2023-04-02T02:40:52;100025.00;;;10.46;65.93
6567;BME280;3317;43.994;22.878;2023-04-02T02:43:20;100024.13;;;10.45;65.61
6567;BME280;3317;43.994;22.878;2023-04-02T02:45:47;100022.78;;;10.41;66.33
6567;BME280;3317;43.994;22.878;2023-04-02T02:48:19;100011.59;;;10.27;66.38
6567;BME280;3317;43.994;22.878;2023-04-02T02:50:48;100020.41;;;10.38;66.31
6567;BME280;3317;43.994;22.878;2023-04-02T02:53:19;100031.91;;;10.40;65.65
6567;BME280;3317;43.994;22.878;2023-04-02T02:55:50;100032.91;;;10.39;66.27
6567;BME280;3317;43.994;22.878;2023-04-02T02:58:22;99973.69;;;10.03;66.23
6567;BME280;3317;43.994;22.878;2023-04-02T03:00:52;100025.47;;;10.33;66.26
6567;BME280;3317;43.994;22.878;2023-04-02T03:03:22;100024.78;;;10.31;66.26
6567;BME280;3317;43.994;22.878;2023-04-02T03:05:52;100018.69;;;10.28;66.36
6567;BME280;3317;43.994;22.878;2023-04-02T03:08:24;100016.16;;;10.27;66.27
6567;BME280;3317;43.994;22.878;2023-04-02T03:10:57;100023.09;;;10.29;65.52
6567;BME280;3317;43.994;22.878;2023-04-02T03:13:29;100027.34;;;10.32;65.38
6567;BME280;3317;43.994;22.878;2023-04-02T03:16:03;100027.66;;;10.29;65.60
6567;BME280;3317;43.994;22.878;2023-04-02T03:18:41;100022.22;;;10.29;65.90
6567;BME280;3317;43.994;22.878;2023-04-02T03:21:18;100022.22;;;10.29;65.88
6567;BME280;3317;43.994;22.878;2023-04-02T03:23:52;100023.09;;;10.29;65.77
6567;BME280;3317;43.994;22.878;2023-04-02T03:26:23;100021.56;;;10.27;65.72
6567;BME280;3317;43.994;22.878;2023-04-02T03:28:56;100026.66;;;10.30;65.44
6567;BME280;3317;43.994;22.878;2023-04-02T03:31:26;99989.09;;;10.10;64.86
6567;BME280;3317;43.994;22.878;2023-04-02T03:34:00;100020.38;;;10.29;65.09
6567;BME280;3317;43.994;22.878;2023-04-02T03:36:32;100015.84;;;10.30;64.78
6567;BME280;3317;43.994;22.878;2023-04-02T03:39:04;100017.00;;;10.27;65.01
6567;BME280;3317;43.994;22.878;2023-04-02T03:41:40;100020.38;;;10.29;64.89
6567;BME280;3317;43.994;22.878;2023-04-02T03:44:18;100027.84;;;10.27;65.07
6567;BME280;3317;43.994;22.878;2023-04-02T03:46:49;100023.44;;;10.26;65.24
6567;BME280;3317;43.994;22.878;2023-04-02T03:49:28;100032.59;;;10.25;64.56
6567;BME280;3317;43.994;22.878;2023-04-02T03:52:00;100029.88;;;10.25;64.31
6567;BME280;3317;43.994;22.878;2023-04-02T03:54:28;100027.66;;;10.21;64.30
6567;BME280;3317;43.994;22.878;2023-04-02T03:56:56;100026.31;;;10.25;64.29
6567;BME280;3317;43.994;22.878;2023-04-02T03:59:33;100030.03;;;10.24;64.40
6567;BME280;3317;43.994;22.878;2023-04-02T04:02:11;100023.94;;;10.22;63.74
6567;BME280;3317;43.994;22.878;2023-04-02T04:04:43;100021.41;;;10.20;64.10
6567;BME280;3317;43.994;22.878;2023-04-02T04:07:21;100024.44;;;10.17;64.81
6567;BME280;3317;43.994;22.878;2023-04-02T04:09:53;100026.31;;;10.17;64.61
6567;BME280;3317;43.994;22.878;2023-04-02T04:12:26;100012.25;;;10.05;64.89
6567;BME280;3317;43.994;22.878;2023-04-02T04:14:58;100006.31;;;10.01;64.51
6567;BME280;3317;43.994;22.878;2023-04-02T04:17:31;100038.31;;;10.14;64.50
6567;BME280;3317;43.994;22.878;2023-04-02T04:20:10;100052.03;;;10.12;64.73
6567;BME280;3317;43.994;22.878;2023-04-02T04:22:40;100048.78;;;10.09;64.95
6567;BME280;3317;43.994;22.878;2023-04-02T04:25:18;100049.81;;;10.08;64.92
6567;BME280;3317;43.994;22.878;2023-04-02T04:27:55;100050.84;;;10.07;65.15
6567;BME280;3317;43.994;22.878;2023-04-02T04:30:35;100051.50;;;10.09;65.46
6567;BME280;3317;43.994;22.878;2023-04-02T04:33:11;100058.59;;;10.10;65.61
6567;BME280;3317;43.994;22.878;2023-04-02T04:35:48;100067.44;;;10.12;65.68
6567;BME280;3317;43.994;22.878;2023-04-02T04:38:17;100065.41;;;10.14;65.83
6567;BME280;3317;43.994;22.878;2023-04-02T04:40:54;100072.16;;;10.18;65.86
6567;BME280;3317;43.994;22.878;2023-04-02T04:43:29;100062.69;;;10.22;66.48
6567;BME280;3317;43.994;22.878;2023-04-02T04:46:02;100060.69;;;10.24;66.45
6567;BME280;3317;43.994;22.878;2023-04-02T04:48:34;100063.56;;;10.31;66.58
6567;BME280;3317;43.994;22.878;2023-04-02T04:51:07;100060.66;;;10.33;66.48
6567;BME280;3317;43.994;22.878;2023-04-02T04:53:44;100058.31;;;10.38;66.35
6567;BME280;3317;43.994;22.878;2023-04-02T04:56:12;100063.06;;;10.44;66.32
6567;BME280;3317;43.994;22.878;2023-04-02T04:58:47;100062.06;;;10.45;66.04
6567;BME280;3317;43.994;22.878;2023-04-02T05:01:18;100072.53;;;10.56;66.00
6567;BME280;3317;43.994;22.878;2023-04-02T05:03:50;100066.63;;;10.61;65.68
6567;BME280;3317;43.994;22.878;2023-04-02T05:06:33;100070.34;;;10.68;65.48
6567;BME280;3317;43.994;22.878;2023-04-02T05:09:06;100077.28;;;10.79;64.59
6567;BME280;3317;43.994;22.878;2023-04-02T05:11:37;100066.94;;;10.83;65.14
6567;BME280;3317;43.994;22.878;2023-04-02T05:14:07;100066.44;;;10.88;64.84
6567;BME280;3317;43.994;22.878;2023-04-02T05:16:44;100079.13;;;10.95;64.87
6567;BME280;3317;43.994;22.878;2023-04-02T05:19:18;100075.19;;;11.06;64.41
6567;BME280;3317;43.994;22.878;2023-04-02T05:21:52;100083.47;;;11.13;64.77
6567;BME280;3317;43.994;22.878;2023-04-02T05:24:39;100084.28;;;11.22;64.89
6567;BME280;3317;43.994;22.878;2023-04-02T05:27:17;100091.03;;;11.26;64.99
6567;BME280;3317;43.994;22.878;2023-04-02T05:29:50;100090.34;;;11.40;64.78
6567;BME280;3317;43.994;22.878;2023-04-02T05:32:22;100091.31;;;11.48;64.49
6567;BME280;3317;43.994;22.878;2023-04-02T05:34:53;100091.97;;;11.58;64.89
6567;BME280;3317;43.994;22.878;2023-04-02T05:37:25;100093.25;;;11.71;64.51
6567;BME280;3317;43.994;22.878;2023-04-02T05:39:55;100080.00;;;11.76;64.98
6567;BME280;3317;43.994;22.878;2023-04-02T05:42:23;100096.00;;;11.94;64.31
6567;BME280;3317;43.994;22.878;2023-04-02T05:45:02;100104.28;;;12.09;63.81
6567;BME280;3317;43.994;22.878;2023-04-02T05:47:32;100105.34;;;12.23;64.18
6567;BME280;3317;43.994;22.878;2023-04-02T05:50:27;100109.84;;;12.39;63.91
6567;BME280;3317;43.994;22.878;2023-04-02T05:53:03;100104.63;;;12.52;63.36
6567;BME280;3317;43.994;22.878;2023-04-02T05:55:47;100115.56;;;12.67;62.55
6567;BME280;3317;43.994;22.878;2023-04-02T05:58:22;100110.84;;;12.85;62.07
6567;BME280;3317;43.994;22.878;2023-04-02T06:01:14;100115.44;;;12.99;63.07
6567;BME280;3317;43.994;22.878;2023-04-02T06:03:50;100122.22;;;13.18;61.27
6567;BME280;3317;43.994;22.878;2023-04-02T06:06:27;100119.22;;;13.28;61.08
6567;BME280;3317;43.994;22.878;2023-04-02T06:08:59;100115.88;;;13.41;61.28
6567;BME280;3317;43.994;22.878;2023-04-02T06:11:31;100117.94;;;13.54;60.96
6567;BME280;3317;43.994;22.878;2023-04-02T06:14:08;100120.94;;;13.74;59.93
6567;BME280;3317;43.994;22.878;2023-04-02T06:16:36;100121.56;;;13.91;60.13
6567;BME280;3317;43.994;22.878;2023-04-02T06:19:09;100123.88;;;14.10;58.85
6567;BME280;3317;43.994;22.878;2023-04-02T06:21:43;100120.34;;;14.16;58.17
6567;BME280;3317;43.994;22.878;2023-04-02T06:24:13;100118.81;;;14.28;57.75
6567;BME280;3317;43.994;22.878;2023-04-02T06:26:44;100122.59;;;14.49;57.66
6567;BME280;3317;43.994;22.878;2023-04-02T06:29:19;100126.50;;;14.61;58.03
6567;BME280;3317;43.994;22.878;2023-04-02T06:31:51;100127.75;;;14.81;57.34
6567;BME280;3317;43.994;22.878;2023-04-02T06:34:21;100126.75;;;14.88;56.74
6567;BME280;3317;43.994;22.878;2023-04-02T06:36:50;100121.59;;;15.00;55.75
6567;BME280;3317;43.994;22.878;2023-04-02T06:39:20;100123.00;;;15.18;55.39
6567;BME280;3317;43.994;22.878;2023-04-02T06:41:55;100124.94;;;15.31;54.44
6567;BME280;3317;43.994;22.878;2023-04-02T06:44:24;100105.69;;;15.39;53.24
6567;BME280;3317;43.994;22.878;2023-04-02T06:46:56;100127.16;;;15.49;52.84
6567;BME280;3317;43.994;22.878;2023-04-02T06:49:29;100138.78;;;15.65;53.32
6567;BME280;3317;43.994;22.878;2023-04-02T06:52:01;100065.78;;;15.38;53.51
6567;BME280;3317;43.994;22.878;2023-04-02T06:54:30;100132.44;;;15.93;53.27
6567;BME280;3317;43.994;22.878;2023-04-02T06:56:57;100130.59;;;16.07;52.75
6567;BME280;3317;43.994;22.878;2023-04-02T06:59:25;100139.06;;;16.18;52.60
6567;BME280;3317;43.994;22.878;2023-04-02T07:01:54;100112.97;;;16.16;51.75
6567;BME280;3317;43.994;22.878;2023-04-02T07:04:24;100129.22;;;16.44;51.14
6567;BME280;3317;43.994;22.878;2023-04-02T07:06:52;100136.59;;;16.57;51.38
6567;BME280;3317;43.994;22.878;2023-04-02T07:09:19;100136.19;;;16.74;51.67
6567;BME280;3317;43.994;22.878;2023-04-02T07:11:47;100134.75;;;16.85;50.80
6567;BME280;3317;43.994;22.878;2023-04-02T07:14:14;100140.22;;;16.98;50.48
6567;BME280;3317;43.994;22.878;2023-04-02T07:16:41;100134.13;;;17.10;49.57
6567;BME280;3317;43.994;22.878;2023-04-02T07:19:16;100114.94;;;16.96;48.11
6567;BME280;3317;43.994;22.878;2023-04-02T07:21:43;100140.00;;;17.20;48.40
6567;BME280;3317;43.994;22.878;2023-04-02T07:24:10;100128.63;;;17.23;47.96
6567;BME280;3317;43.994;22.878;2023-04-02T07:26:37;100141.03;;;17.33;48.19
6567;BME280;3317;43.994;22.878;2023-04-02T07:29:07;100147.34;;;17.40;48.10
6567;BME280;3317;43.994;22.878;2023-04-02T07:31:37;100160.56;;;17.56;48.63
6567;BME280;3317;43.994;22.878;2023-04-02T07:34:05;100158.41;;;17.72;48.13
6567;BME280;3317;43.994;22.878;2023-04-02T07:36:32;100153.13;;;17.84;47.57
6567;BME280;3317;43.994;22.878;2023-04-02T07:39:00;100164.25;;;17.96;46.68
6567;BME280;3317;43.994;22.878;2023-04-02T07:41:27;100156.44;;;18.06;45.79
6567;BME280;3317;43.994;22.878;2023-04-02T07:43:53;100148.38;;;18.11;45.09
6567;BME280;3317;43.994;22.878;2023-04-02T07:46:22;100146.88;;;18.22;45.84
6567;BME280;3317;43.994;22.878;2023-04-02T07:48:50;100158.22;;;18.33;46.25
6567;BME280;3317;43.994;22.878;2023-04-02T07:51:18;100146.34;;;18.39;45.46
6567;BME280;3317;43.994;22.878;2023-04-02T07:53:46;100137.28;;;18.38;45.58
6567;BME280;3317;43.994;22.878;2023-04-02T07:56:17;100136.19;;;18.46;45.34
6567;BME280;3317;43.994;22.878;2023-04-02T07:58:45;100151.88;;;18.64;45.62
6567;BME280;3317;43.994;22.878;2023-04-02T08:01:16;100148.00;;;18.79;45.35
6567;BME280;3317;43.994;22.878;2023-04-02T08:03:45;100148.09;;;18.91;44.95
6567;BME280;3317;43.994;22.878;2023-04-02T08:06:12;100107.03;;;18.77;44.85
6567;BME280;3317;43.994;22.878;2023-04-02T08:08:40;100137.69;;;18.99;43.76
6567;BME280;3317;43.994;22.878;2023-04-02T08:11:07;100149.53;;;19.00;43.09
6567;BME280;3317;43.994;22.878;2023-04-02T08:13:34;100139.81;;;18.97;42.67
6567;BME280;3317;43.994;22.878;2023-04-02T08:16:01;100141.31;;;19.00;42.89
6567;BME280;3317;43.994;22.878;2023-04-02T08:18:29;100143.38;;;19.05;43.03
6567;BME280;3317;43.994;22.878;2023-04-02T08:20:58;100146.50;;;19.08;43.07
6567;BME280;3317;43.994;22.878;2023-04-02T08:23:25;100144.59;;;19.09;43.15
6567;BME280;3317;43.994;22.878;2023-04-02T08:25:52;100141.00;;;19.08;42.70
6567;BME280;3317;43.994;22.878;2023-04-02T08:28:20;100137.88;;;19.05;42.34
6567;BME280;3317;43.994;22.878;2023-04-02T08:30:48;100142.63;;;19.16;42.56
6567;BME280;3317;43.994;22.878;2023-04-02T08:33:15;100146.81;;;19.19;42.83
6567;BME280;3317;43.994;22.878;2023-04-02T08:35:43;100149.50;;;19.25;42.81
6567;BME280;3317;43.994;22.878;2023-04-02T08:38:12;100152.97;;;19.39;43.05
6567;BME280;3317;43.994;22.878;2023-04-02T08:40:41;100151.44;;;19.44;42.13
6567;BME280;3317;43.994;22.878;2023-04-02T08:43:27;100153.44;;;19.55;42.39
6567;BME280;3317;43.994;22.878;2023-04-02T08:46:05;100152.09;;;19.64;41.84
6567;BME280;3317;43.994;22.878;2023-04-02T08:48:37;100097.25;;;19.32;41.23
6567;BME280;3317;43.994;22.878;2023-04-02T08:51:05;100151.59;;;19.86;40.85
6567;BME280;3317;43.994;22.878;2023-04-02T08:53:36;100161.09;;;19.90;41.56
6567;BME280;3317;43.994;22.878;2023-04-02T08:56:08;100150.25;;;19.95;41.49
6567;BME280;3317;43.994;22.878;2023-04-02T08:58:43;100158.50;;;20.14;42.00
6567;BME280;3317;43.994;22.878;2023-04-02T09:01:21;100159.41;;;20.26;40.70
6567;BME280;3317;43.994;22.878;2023-04-02T09:03:55;100150.94;;;20.40;41.19
6567;BME280;3317;43.994;22.878;2023-04-02T09:06:24;100152.06;;;20.51;40.52
6567;BME280;3317;43.994;22.878;2023-04-02T09:08:54;100145.25;;;20.65;39.85
6567;BME280;3317;43.994;22.878;2023-04-02T09:11:23;100143.53;;;20.83;39.87
6567;BME280;3317;43.994;22.878;2023-04-02T09:13:55;100142.72;;;20.94;39.33
6567;BME280;3317;43.994;22.878;2023-04-02T09:16:32;100146.69;;;21.10;39.65
6567;BME280;3317;43.994;22.878;2023-04-02T09:19:00;100142.63;;;21.13;39.01
6567;BME280;3317;43.994;22.878;2023-04-02T09:21:32;100147.41;;;21.30;38.46
6567;BME280;3317;43.994;22.878;2023-04-02T09:24:02;100144.31;;;21.38;37.88
6567;BME280;3317;43.994;22.878;2023-04-02T09:26:31;100129.44;;;21.39;38.29
6567;BME280;3317;43.994;22.878;2023-04-02T09:29:03;100145.22;;;21.56;37.82
6567;BME280;3317;43.994;22.878;2023-04-02T09:31:42;100149.19;;;21.72;38.32
6567;BME280;3317;43.994;22.878;2023-04-02T09:34:27;100140.88;;;21.84;35.83
6567;BME280;3317;43.994;22.878;2023-04-02T09:36:54;100128.03;;;22.01;37.52
6567;BME280;3317;43.994;22.878;2023-04-02T09:39:24;100123.88;;;22.16;35.16
6567;BME280;3317;43.994;22.878;2023-04-02T09:41:51;100119.47;;;22.32;35.15
6567;BME280;3317;43.994;22.878;2023-04-02T09:44:22;100110.88;;;22.28;34.18
6567;BME280;3317;43.994;22.878;2023-04-02T09:46:52;100129.78;;;22.36;33.04
6567;BME280;3317;43.994;22.878;2023-04-02T09:49:22;100131.28;;;22.56;35.55
6567;BME280;3317;43.994;22.878;2023-04-02T09:52:18;100129.44;;;22.62;33.26
6567;BME280;3317;43.994;22.878;2023-04-02T09:55:09;100134.69;;;22.63;33.43
6567;BME280;3317;43.994;22.878;2023-04-02T09:57:42;100140.50;;;22.79;35.75
6567;BME280;3317;43.994;22.878;2023-04-02T10:00:15;100125.25;;;23.11;37.35
6567;BME280;3317;43.994;22.878;2023-04-02T10:02:43;100126.44;;;23.32;37.08
6567;BME280;3317;43.994;22.878;2023-04-02T10:05:18;100138.63;;;23.53;34.01
6567;BME280;3317;43.994;22.878;2023-04-02T10:07:48;100133.41;;;23.57;33.74
6567;BME280;3317;43.994;22.878;2023-04-02T10:10:20;100129.75;;;23.51;32.34
6567;BME280;3317;43.994;22.878;2023-04-02T10:12:51;100132.91;;;23.60;33.80
6567;BME280;3317;43.994;22.878;2023-04-02T10:15:26;100095.50;;;23.35;31.67
6567;BME280;3317;43.994;22.878;2023-04-02T10:18:03;100135.34;;;23.56;31.35
6567;BME280;3317;43.994;22.878;2023-04-02T10:20:33;100133.91;;;23.54;30.88
6567;BME280;3317;43.994;22.878;2023-04-02T10:23:02;100139.09;;;23.50;31.27
6567;BME280;3317;43.994;22.878;2023-04-02T10:25:35;100133.28;;;23.46;31.51
6567;BME280;3317;43.994;22.878;2023-04-02T10:28:13;100133.41;;;23.57;33.61
6567;BME280;3317;43.994;22.878;2023-04-02T10:30:54;100139.06;;;23.67;32.73
6567;BME280;3317;43.994;22.878;2023-04-02T10:33:27;100126.28;;;23.83;33.82
6567;BME280;3317;43.994;22.878;2023-04-02T10:36:01;100124.41;;;23.89;32.64
6567;BME280;3317;43.994;22.878;2023-04-02T10:38:40;100126.84;;;24.08;34.64
6567;BME280;3317;43.994;22.878;2023-04-02T10:41:18;100140.25;;;24.16;31.19
6567;BME280;3317;43.994;22.878;2023-04-02T10:44:05;100132.91;;;24.04;30.26
6567;BME280;3317;43.994;22.878;2023-04-02T10:46:39;100136.13;;;23.96;29.73
6567;BME280;3317;43.994;22.878;2023-04-02T10:49:19;100131.63;;;23.90;30.26
6567;BME280;3317;43.994;22.878;2023-04-02T10:51:54;100143.00;;;23.94;31.49
6567;BME280;3317;43.994;22.878;2023-04-02T10:54:35;100126.84;;;24.08;32.53
6567;BME280;3317;43.994;22.878;2023-04-02T10:57:10;100123.69;;;24.21;32.55
6567;BME280;3317;43.994;22.878;2023-04-02T10:59:41;100136.75;;;24.26;30.96
6567;BME280;3317;43.994;22.878;2023-04-02T11:02:31;100128.19;;;24.27;29.75
6567;BME280;3317;43.994;22.878;2023-04-02T11:05:05;100124.06;;;24.30;29.90
6567;BME280;3317;43.994;22.878;2023-04-02T11:07:43;100129.03;;;24.28;30.71
6567;BME280;3317;43.994;22.878;2023-04-02T11:10:14;100126.06;;;24.35;31.88
6567;BME280;3317;43.994;22.878;2023-04-02T11:12:51;100137.22;;;24.45;31.47
6567;BME280;3317;43.994;22.878;2023-04-02T11:15:22;100117.47;;;24.36;28.94
6567;BME280;3317;43.994;22.878;2023-04-02T11:17:49;100124.97;;;24.36;29.50
6567;BME280;3317;43.994;22.878;2023-04-02T11:20:42;100128.91;;;24.45;31.78
6567;BME280;3317;43.994;22.878;2023-04-02T11:23:17;100123.53;;;24.60;32.29
6567;BME280;3317;43.994;22.878;2023-04-02T11:25:45;100111.38;;;24.61;31.41
6567;BME280;3317;43.994;22.878;2023-04-02T11:28:23;100117.78;;;24.67;31.11
6567;BME280;3317;43.994;22.878;2023-04-02T11:30:53;100113.06;;;24.68;31.16
6567;BME280;3317;43.994;22.878;2023-04-02T11:33:36;100108.06;;;24.65;31.20
6567;BME280;3317;43.994;22.878;2023-04-02T11:39:49;100110.81;;;24.65;30.65
6567;BME280;3317;43.994;22.878;2023-04-02T11:42:30;100117.34;;;24.48;29.54
6567;BME280;3317;43.994;22.878;2023-04-02T11:50:48;100117.06;;;24.22;31.08
6567;BME280;3317;43.994;22.878;2023-04-02T11:53:20;100108.91;;;24.10;29.39
6567;BME280;3317;43.994;22.878;2023-04-02T11:56:06;100108.28;;;24.03;29.92
6567;BME280;3317;43.994;22.878;2023-04-02T11:58:43;100108.94;;;23.93;31.01
6567;BME280;3317;43.994;22.878;2023-04-02T12:01:32;100108.94;;;23.93;31.53
6567;BME280;3317;43.994;22.878;2023-04-02T12:04:43;100104.50;;;23.92;32.29
6567;BME280;3317;43.994;22.878;2023-04-02T12:07:35;100102.66;;;23.75;30.97
6567;BME280;3317;43.994;22.878;2023-04-02T12:10:18;100095.28;;;23.59;30.86
6567;BME280;3317;43.994;22.878;2023-04-02T12:12:46;100098.34;;;23.62;33.07
6567;BME280;3317;43.994;22.878;2023-04-02T12:15:43;100093.00;;;23.56;31.40
6567;BME280;3317;43.994;22.878;2023-04-02T12:18:15;100092.81;;;23.40;31.15
6567;BME280;3317;43.994;22.878;2023-04-02T12:20:48;100098.00;;;23.37;32.65
6567;BME280;3317;43.994;22.878;2023-04-02T12:23:20;100089.91;;;23.30;32.27
6567;BME280;3317;43.994;22.878;2023-04-02T12:25:55;100089.91;;;23.30;33.15
6567;BME280;3317;43.994;22.878;2023-04-02T12:28:23;100068.97;;;23.17;31.83
6567;BME280;3317;43.994;22.878;2023-04-02T12:31:02;100071.69;;;23.12;31.78
6567;BME280;3317;43.994;22.878;2023-04-02T12:33:33;100090.09;;;23.06;31.90
6567;BME280;3317;43.994;22.878;2023-04-02T12:36:03;100090.53;;;22.98;31.96
6567;BME280;3317;43.994;22.878;2023-04-02T12:38:33;100083.31;;;22.97;32.92
6567;BME280;3317;43.994;22.878;2023-04-02T12:41:03;100084.84;;;22.87;32.15
6567;BME280;3317;43.994;22.878;2023-04-02T12:43:32;100086.50;;;22.88;31.96
6567;BME280;3317;43.994;22.878;2023-04-02T12:46:01;100079.41;;;22.92;34.29
6567;BME280;3317;43.994;22.878;2023-04-02T12:48:31;100084.59;;;22.89;32.24
6567;BME280;3317;43.994;22.878;2023-04-02T12:50:59;100086.44;;;22.83;32.48
6567;BME280;3317;43.994;22.878;2023-04-02T12:53:31;100083.91;;;22.82;32.50
6567;BME280;3317;43.994;22.878;2023-04-02T12:56:00;100073.63;;;22.77;33.73
6567;BME280;3317;43.994;22.878;2023-04-02T12:58:29;100079.06;;;22.72;34.04
6567;BME280;3317;43.994;22.878;2023-04-02T13:01:11;100090.69;;;22.74;32.81
6567;BME280;3317;43.994;22.878;2023-04-02T13:03:40;100080.66;;;22.68;32.99
6567;BME280;3317;43.994;22.878;2023-04-02T13:06:20;100091.22;;;22.71;32.84
6567;BME280;3317;43.994;22.878;2023-04-02T13:08:48;100082.34;;;22.69;32.56
6567;BME280;3317;43.994;22.878;2023-04-02T13:11:16;100087.75;;;22.63;32.67
6567;BME280;3317;43.994;22.878;2023-04-02T13:13:44;100086.34;;;22.61;32.67
6567;BME280;3317;43.994;22.878;2023-04-02T13:16:32;100084.94;;;22.58;32.13
6567;BME280;3317;43.994;22.878;2023-04-02T13:19:23;100078.72;;;22.51;32.75
6567;BME280;3317;43.994;22.878;2023-04-02T13:21:50;100069.25;;;22.47;32.81
6567;BME280;3317;43.994;22.878;2023-04-02T13:24:19;100089.53;;;22.53;32.37
6567;BME280;3317;43.994;22.878;2023-04-02T13:26:48;100086.03;;;22.45;32.32
6567;BME280;3317;43.994;22.878;2023-04-02T13:29:24;100089.56;;;22.41;32.96
6567;BME280;3317;43.994;22.878;2023-04-02T13:31:54;100082.63;;;22.38;32.85
6567;BME280;3317;43.994;22.878;2023-04-02T13:34:22;100080.34;;;22.35;34.04
6567;BME280;3317;43.994;22.878;2023-04-02T13:36:49;100090.91;;;22.38;33.45
6567;BME280;3317;43.994;22.878;2023-04-02T13:39:16;100082.84;;;22.36;33.47
6567;BME280;3317;43.994;22.878;2023-04-02T13:41:46;100089.63;;;22.29;32.98
6567;BME280;3317;43.994;22.878;2023-04-02T13:44:18;100088.19;;;22.26;33.08